Date,TemperatureHighF,TemperatureAvgF,TemperatureLowF,DewpointHighF,DewpointAvgF,DewpointLowF,HumidityHigh,HumidityAvg,HumidityLow,PressureMaxIn,PressureMinIn,WindSpeedMaxMPH,WindSpeedAvgMPH,GustSpeedMaxMPH,PrecipitationSumIn
2013-3-1,35.3,29.3,25.0,30.0,26.2,22.0,98,88,68,28.62,28.48,7,1,18,0.04
2013-3-2,29.7,25.2,19.7,26.0,22.6,18.0,94,90,81,28.61,28.57,8,2,13,0.00
2013-3-3,25.6,21.2,17.8,21.0,19.0,16.0,95,91,81,28.58,28.54,10,3,16,0.00
2013-3-4,29.4,21.5,17.5,21.0,18.3,16.0,94,87,70,28.75,28.56,11,4,20,0.00
2013-3-5,38.5,26.7,19.6,27.0,22.3,17.0,91,84,63,28.98,28.74,8,2,13,0.05
2013-3-6,30.5,28.3,25.0,28.0,26.1,23.0,96,91,83,29.04,28.95,7,1,10,0.00
2013-3-7,32.9,26.8,23.8,28.0,23.9,21.0,95,89,75,29.02,28.96,4,0,10,0.00
2013-3-8,35.5,27.5,23.9,29.0,24.4,21.0,96,88,73,29.15,28.93,0,0,0,0.00
2013-3-9,53.8,36.5,23.5,23.0,19.4,17.0,83,54,24,29.22,29.13,5,0,12,0.70
2013-3-10,50.7,39.2,29.5,27.0,21.8,15.0,64,51,34,29.23,29.10,16,4,17,0.27
2013-3-11,50.3,39.2,32.9,35.0,28.2,18.0,86,67,30,29.13,28.94,10,3,16,0.00
2013-3-12,45.9,41.8,33.1,45.0,40.9,33.0,98,97,89,28.95,28.62,16,7,21,0.58
2013-3-13,39.1,32.2,27.4,32.0,25.3,17.0,98,78,50,28.70,28.64,11,3,15,0.00
2013-3-14,27.3,18.6,12.5,23.0,12.6,6.0,88,77,64,28.72,28.62,13,5,21,0.00
2013-3-15,29.2,19.8,11.0,25.0,12.4,2.0,93,74,38,28.75,28.53,15,5,22,0.00
2013-3-16,30.0,21.5,13.8,21.0,11.7,9.0,91,68,44,28.77,28.62,7,2,14,0.00
2013-3-17,26.6,18.8,8.6,14.0,6.1,1.0,87,60,35,29.17,28.77,12,3,19,0.00
2013-3-18,30.6,19.2,7.4,19.0,1.9,-6.0,92,50,28,29.29,29.04,7,2,17,0.00
2013-3-19,28.6,24.0,20.6,27.0,22.6,19.0,95,94,91,29.03,28.62,6,2,14,0.00
2013-3-20,27.0,21.2,17.9,24.0,18.7,16.0,95,90,83,28.68,28.59,12,4,20,0.00
2013-3-21,32.5,22.5,15.7,17.0,13.4,9.0,87,70,39,28.67,28.53,9,2,15,0.02
2013-3-22,31.3,22.5,16.6,23.0,16.3,11.0,91,78,59,28.65,28.54,7,2,18,0.00
2013-3-23,34.0,26.4,21.1,20.0,17.6,15.0,90,71,50,28.72,28.59,14,5,23,0.00
2013-3-24,38.0,29.5,24.4,24.0,20.8,19.0,83,71,55,28.75,28.67,10,3,14,0.02
2013-3-25,39.4,33.1,28.9,26.0,23.9,22.0,78,69,59,28.61,28.46,4,0,5,0.02
2013-3-26,41.0,31.1,26.0,27.0,22.7,19.0,95,73,44,28.73,28.51,6,2,13,0.01
2013-3-27,43.3,34.6,28.7,29.0,23.7,19.0,84,65,48,28.82,28.70,8,3,16,0.00
2013-3-28,41.8,35.2,29.4,32.0,29.7,27.0,96,81,64,28.97,28.81,8,2,12,0.03
2013-3-29,43.2,35.9,32.3,31.0,29.7,27.0,89,79,60,28.99,28.93,7,2,10,0.00
2013-3-30,48.2,38.2,31.1,28.0,21.0,12.0,85,55,27,29.01,28.95,7,2,14,0.00
2013-3-31,49.4,39.4,32.8,34.0,22.1,14.0,97,53,33,29.01,28.64,17,5,24,0.08